Time;durP1;ratioP1;P1;durP2;ratioP2;P2;SDS_P1;SDS_P2;PMS_P1;PMS_P2;Temp;Humidity;BMP_temperature;BMP_pressure;BME280_temperature;BME280_humidity;BME280_pressure;Samples;Min_cycle;Max_cycle;Signal;HPM_P1;HPM_P2
2023/05/18 00:02:05;;;;;;;10.07;3.75;;;;;;;7.78;79.45;102144.97;4980221;28;20112;-63
2023/05/18 00:04:35;;;;;;;8.82;3.03;;;;;;;7.75;78.93;102147.47;4982511;28;20122;-63
2023/05/18 00:07:05;;;;;;;9.35;3.10;;;;;;;7.70;79.00;102149.94;4985917;28;20041;-62
2023/05/18 00:09:32;;;;;;;7.15;3.17;;;;;;;7.69;79.19;102145.63;4982665;28;20030;-62
2023/05/18 00:11:59;;;;;;;9.80;3.50;;;;;;;7.65;79.36;102143.81;4983055;28;20138;-63
2023/05/18 00:14:25;;;;;;;9.30;3.25;;;;;;;7.63;79.40;102147.16;4984792;28;20144;-62
2023/05/18 00:16:52;;;;;;;9.27;3.20;;;;;;;7.59;79.65;102151.38;4981356;28;20038;-63
2023/05/18 00:19:19;;;;;;;10.70;3.53;;;;;;;7.57;79.78;102149.56;4983310;28;20105;-63
2023/05/18 00:21:45;;;;;;;10.30;4.00;;;;;;;7.53;80.11;102148.66;4982228;28;20035;-62
2023/05/18 00:24:12;;;;;;;14.32;4.00;;;;;;;7.50;80.26;102145.13;4980393;28;20038;-62
2023/05/18 00:26:38;;;;;;;9.43;3.53;;;;;;;7.49;80.34;102148.50;4981491;28;20132;-62
2023/05/18 00:29:04;;;;;;;10.40;3.83;;;;;;;7.45;80.87;102147.56;4982621;28;20026;-63
2023/05/18 00:31:34;;;;;;;9.70;3.83;;;;;;;7.44;81.84;102153.56;4972308;28;20052;-62
2023/05/18 00:34:03;;;;;;;10.60;3.60;;;;;;;7.41;82.38;102150.91;4982127;28;20042;-63
2023/05/18 00:36:30;;;;;;;7.10;3.00;;;;;;;7.34;82.64;102147.28;4987576;28;20038;-63
2023/05/18 00:38:56;;;;;;;13.25;4.20;;;;;;;7.31;82.50;102154.03;4980063;28;20035;-62
2023/05/18 00:41:21;;;;;;;9.43;3.50;;;;;;;7.26;82.67;102159.09;4981146;28;20133;-62
2023/05/18 00:43:47;;;;;;;13.20;3.80;;;;;;;7.24;82.62;102154.72;4986030;28;20034;-62
2023/05/18 00:46:12;;;;;;;11.98;3.65;;;;;;;7.19;83.05;102153.72;4979787;28;20074;-62
2023/05/18 00:48:37;;;;;;;13.55;3.97;;;;;;;7.16;82.85;102149.38;4979950;28;20102;-62
2023/05/18 00:51:04;;;;;;;8.52;3.50;;;;;;;7.13;82.24;102143.22;4983555;28;20038;-62
2023/05/18 00:53:31;;;;;;;8.85;3.42;;;;;;;7.09;82.80;102147.41;4984187;28;20030;-62
2023/05/18 00:55:57;;;;;;;9.75;3.60;;;;;;;7.06;82.82;102139.59;4980606;28;20053;-62
2023/05/18 00:58:23;;;;;;;19.58;3.75;;;;;;;7.05;83.00;102149.88;4983260;28;20034;-62
2023/05/18 01:00:48;;;;;;;7.30;3.15;;;;;;;7.02;83.28;102147.22;4980887;28;20053;-62
2023/05/18 01:03:14;;;;;;;12.60;3.97;;;;;;;6.99;83.51;102148.00;4979694;28;20030;-63
2023/05/18 01:05:39;;;;;;;10.30;3.53;;;;;;;6.97;84.07;102151.34;4985620;28;20844;-63
2023/05/18 01:08:06;;;;;;;8.77;3.72;;;;;;;6.95;84.66;102147.84;4984769;28;20035;-62
2023/05/18 01:10:36;;;;;;;10.40;4.13;;;;;;;6.91;84.85;102147.75;4979735;28;20822;-62
2023/05/18 01:13:05;;;;;;;6.90;3.55;;;;;;;6.90;84.70;102146.03;4981495;28;20088;-62
2023/05/18 01:15:38;;;;;;;11.25;4.22;;;;;;;6.86;84.84;102141.63;4979863;28;20045;-62
2023/05/18 01:18:27;;;;;;;9.68;3.83;;;;;;;6.82;84.84;102139.78;4982796;28;20808;-62
2023/05/18 01:21:10;;;;;;;9.85;3.38;;;;;;;6.79;84.36;102144.00;4983273;28;20038;-62
2023/05/18 01:23:58;;;;;;;9.10;3.60;;;;;;;6.74;84.61;102141.28;4984822;28;20999;-63
2023/05/18 01:26:36;;;;;;;12.05;4.00;;;;;;;6.73;84.82;102142.09;4981676;28;20030;-62
2023/05/18 01:29:07;;;;;;;10.40;3.67;;;;;;;6.68;84.76;102138.53;4979845;28;20057;-62
2023/05/18 01:31:33;;;;;;;11.38;3.95;;;;;;;6.66;84.51;102147.91;4976830;28;20054;-63
2023/05/18 01:33:58;;;;;;;8.35;3.33;;;;;;;6.62;85.03;102145.19;4981937;28;20459;-62
2023/05/18 01:36:24;;;;;;;10.15;3.72;;;;;;;6.57;85.76;102151.88;4984539;28;20092;-63
2023/05/18 01:38:50;;;;;;;11.05;3.88;;;;;;;6.53;85.33;102152.59;4980574;28;20541;-62
2023/05/18 01:41:21;;;;;;;6.78;3.75;;;;;;;6.47;86.12;102147.31;4981299;28;20092;-63
2023/05/18 01:44:11;;;;;;;15.02;3.63;;;;;;;6.44;85.78;102147.22;4980562;28;20022;-62
2023/05/18 01:46:39;;;;;;;7.03;3.50;;;;;;;6.40;86.08;102142.81;4975688;28;20046;-62
2023/05/18 01:49:33;;;;;;;14.20;3.88;;;;;;;6.35;86.26;102158.06;4984304;28;20041;-62
2023/05/18 01:52:04;;;;;;;11.13;4.30;;;;;;;6.31;86.76;102154.56;4976996;28;20061;-62
2023/05/18 01:54:32;;;;;;;11.10;4.05;;;;;;;6.30;86.17;102159.63;4985640;28;20907;-62
2023/05/18 01:56:58;;;;;;;10.70;3.75;;;;;;;6.26;86.44;102150.94;4980244;28;20050;-63
2023/05/18 01:59:24;;;;;;;10.10;4.10;;;;;;;6.25;86.22;102162.06;4983466;28;20484;-62
2023/05/18 02:01:50;;;;;;;6.43;3.55;;;;;;;6.22;86.05;102141.44;4979801;28;20049;-62
2023/05/18 02:04:15;;;;;;;16.38;4.85;;;;;;;6.21;86.46;102156.75;4982406;28;20038;-62
2023/05/18 02:06:41;;;;;;;10.48;3.58;;;;;;;6.19;86.21;102149.03;4986694;28;20100;-62
2023/05/18 02:09:07;;;;;;;12.45;3.88;;;;;;;6.20;86.23;102147.34;4981958;28;20065;-62
2023/05/18 02:11:33;;;;;;;11.77;4.28;;;;;;;6.19;86.43;102150.72;4983805;28;20095;-62
2023/05/18 02:13:59;;;;;;;8.15;3.38;;;;;;;6.17;86.63;102149.81;4984537;28;20431;-62
2023/05/18 02:16:25;;;;;;;6.75;3.70;;;;;;;6.16;86.29;102153.19;4982906;28;20046;-62
2023/05/18 02:18:51;;;;;;;10.20;4.43;;;;;;;6.14;86.66;102150.56;4983632;28;20400;-62
2023/05/18 02:21:17;;;;;;;13.75;4.28;;;;;;;6.12;86.46;102154.78;4985070;28;20038;-62
2023/05/18 02:23:43;;;;;;;14.18;4.13;;;;;;;6.13;86.71;102165.94;4989489;28;20042;-62
2023/05/18 02:26:08;;;;;;;11.68;3.70;;;;;;;6.09;87.21;102161.50;4983126;28;20811;-63
2023/05/18 02:28:34;;;;;;;12.45;4.15;;;;;;;6.05;86.83;102163.09;4982437;28;20030;-62
2023/05/18 02:31:13;;;;;;;8.88;3.70;;;;;;;6.03;87.56;102158.75;4983712;28;20148;-65
2023/05/18 02:33:39;;;;;;;6.63;3.30;;;;;;;6.01;87.50;102157.84;4981612;28;20109;-65
2023/05/18 02:36:11;;;;;;;10.57;4.38;;;;;;;6.00;87.24;102156.06;4992417;28;20097;-65
2023/05/18 02:38:37;;;;;;;8.07;4.22;;;;;;;5.98;87.41;102162.88;4981368;28;20045;-65
2023/05/18 02:41:02;;;;;;;14.30;4.78;;;;;;;5.96;87.81;102170.50;4984867;28;20041;-65
2023/05/18 02:43:28;;;;;;;11.52;4.22;;;;;;;5.94;88.09;102167.03;5014060;28;20046;-65
2023/05/18 02:45:53;;;;;;;9.38;3.92;;;;;;;5.91;87.88;102166.03;4983967;28;20061;-65
2023/05/18 02:48:19;;;;;;;8.88;4.15;;;;;;;5.89;88.71;102172.84;4988962;28;20033;-64
2023/05/18 02:50:47;;;;;;;9.40;3.92;;;;;;;5.87;88.63;102166.78;4981198;28;20046;-65
2023/05/18 02:53:13;;;;;;;8.65;4.35;;;;;;;5.85;88.12;102170.97;4987458;28;20034;-65
2023/05/18 02:55:39;;;;;;;11.40;4.50;;;;;;;5.87;88.88;102164.22;4983064;28;20040;-65
2023/05/18 02:58:05;;;;;;;9.88;5.20;;;;;;;5.85;89.45;102166.72;4988771;28;20037;-65
2023/05/18 03:00:31;;;;;;;10.93;4.43;;;;;;;5.82;89.15;102160.59;4985167;28;20088;-65
2023/05/18 03:02:59;;;;;;;9.88;4.63;;;;;;;5.81;89.34;102158.88;4978239;28;20824;-65
2023/05/18 03:05:25;;;;;;;9.60;3.83;;;;;;;5.79;89.65;102162.25;4981872;28;20543;-64
2023/05/18 03:07:51;;;;;;;9.77;4.05;;;;;;;5.77;90.00;102161.34;4984131;28;20134;-66
2023/05/18 03:10:18;;;;;;;9.00;3.95;;;;;;;5.74;89.34;102170.63;4979496;28;20104;-64
2023/05/18 03:12:44;;;;;;;9.63;4.22;;;;;;;5.72;89.98;102169.72;4980883;28;20376;-65
2023/05/18 03:15:10;;;;;;;13.98;4.85;;;;;;;5.69;90.38;102169.63;4979788;28;20022;-65
2023/05/18 03:17:36;;;;;;;9.23;4.85;;;;;;;5.68;90.07;102171.31;4977743;28;20041;-65
2023/05/18 03:20:03;;;;;;;7.90;4.63;;;;;;;5.69;89.84;102162.75;4980756;28;20026;-64
2023/05/18 03:22:29;;;;;;;13.80;3.80;;;;;;;5.67;89.91;102166.97;4982453;28;20559;-64
2023/05/18 03:24:54;;;;;;;11.55;4.00;;;;;;;5.65;90.21;102167.75;4982033;28;20054;-65
2023/05/18 03:27:24;;;;;;;10.00;4.47;;;;;;;5.64;89.88;102169.44;4979458;28;20093;-65
2023/05/18 03:29:51;;;;;;;8.68;4.32;;;;;;;5.64;90.04;102166.00;4975716;28;20054;-65
2023/05/18 03:32:20;;;;;;;11.07;4.80;;;;;;;5.62;90.02;102170.22;4977835;28;20033;-65
2023/05/18 03:34:46;;;;;;;10.02;4.78;;;;;;;5.62;90.46;102176.22;4984666;28;20041;-65
2023/05/18 03:37:12;;;;;;;30.33;6.10;;;;;;;5.61;90.02;102171.91;4985070;28;20038;-65
2023/05/18 03:39:38;;;;;;;11.18;3.92;;;;;;;5.57;90.34;102171.75;4981508;28;20158;-64
2023/05/18 03:42:03;;;;;;;11.45;5.20;;;;;;;5.55;89.99;102168.25;4982015;28;20678;-64
2023/05/18 03:44:28;;;;;;;9.27;4.20;;;;;;;5.55;90.39;102175.94;4978579;28;20124;-64
2023/05/18 03:46:54;;;;;;;10.25;4.50;;;;;;;5.54;90.13;102180.22;4981366;28;20070;-64
2023/05/18 03:49:20;;;;;;;13.93;5.03;;;;;;;5.54;90.52;102175.09;4981233;28;21344;-64
2023/05/18 03:51:45;;;;;;;10.45;4.85;;;;;;;5.58;89.61;102181.19;4978562;28;20035;-65
2023/05/18 03:54:11;;;;;;;14.85;4.75;;;;;;;5.59;90.11;102185.50;4980904;28;20042;-64
2023/05/18 03:56:36;;;;;;;12.20;4.70;;;;;;;5.60;89.52;102179.56;4981935;28;20045;-64
2023/05/18 03:59:02;;;;;;;13.25;5.32;;;;;;;5.64;89.57;102176.25;4982866;28;20161;-64
2023/05/18 04:01:29;;;;;;;16.33;4.72;;;;;;;5.68;89.35;102176.44;4977435;28;20035;-64
2023/05/18 04:03:56;;;;;;;10.82;4.35;;;;;;;5.72;89.30;102177.41;4984758;28;20038;-65
2023/05/18 04:06:22;;;;;;;9.80;4.43;;;;;;;5.75;89.06;102175.78;4985702;28;20092;-64
2023/05/18 04:08:48;;;;;;;7.20;4.55;;;;;;;5.79;88.33;102175.09;4980798;28;20121;-65
2023/05/18 04:11:14;;;;;;;9.98;4.90;;;;;;;5.84;88.09;102175.25;4981231;28;20089;-64
2023/05/18 04:13:40;;;;;;;10.95;5.07;;;;;;;5.89;88.41;102177.97;4981799;28;20046;-65
2023/05/18 04:16:06;;;;;;;12.50;4.78;;;;;;;5.91;88.24;102177.19;4981760;28;20041;-64
2023/05/18 04:18:31;;;;;;;8.30;4.55;;;;;;;5.95;88.14;102178.16;4982317;28;20085;-64
2023/05/18 04:20:57;;;;;;;9.45;4.20;;;;;;;5.99;87.28;102172.31;4979333;28;20475;-64
2023/05/18 04:23:22;;;;;;;8.23;5.03;;;;;;;6.02;87.63;102172.41;4984846;28;20114;-64
2023/05/18 04:25:48;;;;;;;10.98;5.22;;;;;;;6.07;87.81;102179.44;4987074;28;20145;-64
2023/05/18 04:28:14;;;;;;;8.85;5.10;;;;;;;6.13;87.32;102176.19;4984128;28;20043;-64
2023/05/18 04:30:39;;;;;;;12.82;4.57;;;;;;;6.17;87.21;102178.91;4976840;28;20772;-64
2023/05/18 04:33:05;;;;;;;10.60;4.68;;;;;;;6.21;87.35;102178.19;4979340;28;20042;-65
2023/05/18 04:35:31;;;;;;;10.65;4.30;;;;;;;6.28;87.11;102176.69;4983631;28;20066;-64
2023/05/18 04:37:57;;;;;;;11.30;4.40;;;;;;;6.31;86.41;102180.22;4987252;28;20121;-64
2023/05/18 04:40:24;;;;;;;10.80;4.38;;;;;;;6.37;86.71;102176.09;4984147;28;20034;-64
2023/05/18 04:42:49;;;;;;;11.00;4.65;;;;;;;6.39;86.43;102183.03;4982769;28;20108;-64
2023/05/18 04:45:19;;;;;;;7.57;4.57;;;;;;;6.44;86.17;102178.88;4984940;28;20039;-64
2023/05/18 04:47:46;;;;;;;9.57;4.50;;;;;;;6.45;86.10;102182.34;4985327;28;20046;-63
2023/05/18 04:50:16;;;;;;;10.18;5.20;;;;;;;6.49;86.05;102171.34;4980459;28;20061;-64
2023/05/18 04:52:47;;;;;;;11.30;5.03;;;;;;;6.51;85.75;102185.09;4978919;28;20056;-64
2023/05/18 04:55:21;;;;;;;7.60;3.67;;;;;;;6.54;85.54;102182.63;4986345;28;20145;-64
2023/05/18 04:57:47;;;;;;;8.85;4.07;;;;;;;6.63;85.61;102180.31;4987959;28;20042;-64
2023/05/18 05:00:13;;;;;;;11.45;4.00;;;;;;;6.66;85.16;102186.44;4983617;28;20041;-65
2023/05/18 05:02:39;;;;;;;11.45;4.68;;;;;;;6.69;84.69;102183.09;4984924;28;20125;-64
2023/05/18 05:05:05;;;;;;;11.23;3.85;;;;;;;6.76;85.00;102185.88;4985312;28;20048;-64
2023/05/18 05:07:31;;;;;;;12.05;4.65;;;;;;;6.81;84.91;102188.59;4983239;28;20111;-64
2023/05/18 05:09:56;;;;;;;15.82;4.65;;;;;;;6.87;84.58;102186.19;4984458;28;20038;-64
2023/05/18 05:12:21;;;;;;;9.88;3.50;;;;;;;6.96;84.37;102195.88;4984272;28;20077;-64
2023/05/18 05:14:47;;;;;;;7.63;4.10;;;;;;;7.04;84.22;102190.13;4983336;28;20114;-64
2023/05/18 05:17:12;;;;;;;16.58;4.38;;;;;;;7.09;83.90;102183.41;4979814;28;20120;-64
2023/05/18 05:19:38;;;;;;;10.55;4.68;;;;;;;7.17;83.66;102189.69;4984069;28;20781;-64
2023/05/18 05:22:03;;;;;;;7.30;4.22;;;;;;;7.24;83.82;102190.72;4984979;28;20401;-64
2023/05/18 05:24:29;;;;;;;12.63;4.60;;;;;;;7.31;84.01;102192.63;4987016;28;20387;-65
2023/05/18 05:26:54;;;;;;;11.02;4.85;;;;;;;7.30;83.69;102199.47;5011249;28;20031;-64
2023/05/18 05:29:20;;;;;;;13.57;4.75;;;;;;;7.35;83.43;102192.78;4980040;28;20070;-64
2023/05/18 05:31:45;;;;;;;13.93;4.18;;;;;;;7.34;81.30;102185.88;4978790;28;20273;-64
2023/05/18 05:34:12;;;;;;;10.57;3.97;;;;;;;7.42;81.30;102186.94;4984895;28;20471;-64
2023/05/18 05:36:38;;;;;;;9.18;3.85;;;;;;;7.47;81.05;102184.50;4990255;28;20121;-65
2023/05/18 05:39:03;;;;;;;11.25;4.55;;;;;;;7.57;81.33;102193.31;4983993;28;20118;-64
2023/05/18 05:41:29;;;;;;;11.32;4.50;;;;;;;7.64;81.21;102195.25;4984085;28;20503;-64
2023/05/18 05:43:55;;;;;;;15.25;4.55;;;;;;;7.70;80.03;102185.97;4982568;28;20567;-64
2023/05/18 05:46:21;;;;;;;9.82;4.22;;;;;;;7.78;80.20;102192.19;4986117;28;20045;-64
2023/05/18 05:48:46;;;;;;;12.55;4.25;;;;;;;7.80;78.17;102166.50;4987149;28;20042;-64
2023/05/18 05:51:12;;;;;;;10.82;4.90;;;;;;;7.85;76.58;102150.34;4982156;28;20044;-64
2023/05/18 05:53:37;;;;;;;9.85;4.32;;;;;;;7.94;76.57;102162.56;4983457;28;20038;-64
2023/05/18 05:56:03;;;;;;;10.63;4.18;;;;;;;8.02;76.75;102171.34;4983358;28;20506;-64
2023/05/18 05:58:28;;;;;;;9.25;3.63;;;;;;;8.05;74.62;102145.66;4985505;28;20034;-65
2023/05/18 06:00:53;;;;;;;8.43;4.05;;;;;;;8.05;74.37;102148.22;4975798;28;20129;-64
2023/05/18 06:03:19;;;;;;;8.32;3.53;;;;;;;8.09;73.31;102141.47;4977654;28;20034;-64
2023/05/18 06:05:44;;;;;;;11.32;4.10;;;;;;;8.15;73.47;102150.19;4982436;28;20045;-64
2023/05/18 06:08:09;;;;;;;12.65;4.03;;;;;;;8.23;73.09;102140.94;4984844;28;20038;-64
2023/05/18 06:10:35;;;;;;;9.95;5.35;;;;;;;8.31;73.27;102156.56;4974393;28;20386;-65
2023/05/18 06:13:00;;;;;;;10.50;4.18;;;;;;;8.37;73.54;102167.00;4976872;28;20034;-64
2023/05/18 06:15:26;;;;;;;9.27;4.50;;;;;;;8.45;74.13;102170.66;4978750;28;20038;-65
2023/05/18 06:17:51;;;;;;;12.68;4.32;;;;;;;8.53;74.19;102164.81;4980739;28;20414;-64
2023/05/18 06:20:17;;;;;;;14.80;4.95;;;;;;;8.63;71.65;102131.53;4978367;28;20038;-65
2023/05/18 06:22:43;;;;;;;9.45;4.20;;;;;;;8.68;71.28;102120.47;4979412;28;20031;-65
2023/05/18 06:25:09;;;;;;;11.98;4.10;;;;;;;8.74;70.07;102110.28;4982184;28;20069;-65
2023/05/18 06:27:35;;;;;;;12.93;4.32;;;;;;;8.82;69.78;102113.00;4980429;28;20764;-65
2023/05/18 06:30:00;;;;;;;11.95;4.38;;;;;;;8.92;69.42;102115.81;4973775;28;20173;-64
2023/05/18 06:32:25;;;;;;;12.88;4.53;;;;;;;8.99;70.19;102119.38;4974682;28;20125;-65
2023/05/18 06:34:51;;;;;;;11.75;4.10;;;;;;;9.09;70.31;102137.63;4983056;28;20033;-64
2023/05/18 06:37:18;;;;;;;12.30;3.97;;;;;;;9.14;69.02;102117.06;4979659;28;20042;-64
2023/05/18 06:39:43;;;;;;;12.50;4.53;;;;;;;9.20;68.96;102121.50;4981348;28;20109;-65
2023/05/18 06:42:08;;;;;;;13.15;4.68;;;;;;;9.22;69.38;102122.41;4981740;28;20038;-65
2023/05/18 06:44:34;;;;;;;11.98;4.38;;;;;;;9.23;69.95;102130.16;4976902;28;20500;-65
2023/05/18 06:47:00;;;;;;;12.98;4.20;;;;;;;9.19;69.18;102132.66;5013942;28;20030;-65
2023/05/18 06:49:26;;;;;;;10.18;4.43;;;;;;;9.32;69.52;102135.47;4974345;28;20688;-65
2023/05/18 06:51:51;;;;;;;11.52;4.35;;;;;;;9.39;69.16;102133.88;4978594;28;20038;-64
2023/05/18 06:54:16;;;;;;;11.15;4.75;;;;;;;9.50;69.86;102143.56;4983605;28;20077;-65
2023/05/18 06:56:42;;;;;;;10.05;3.92;;;;;;;9.61;69.48;102139.47;4980506;28;20857;-65
2023/05/18 06:59:07;;;;;;;7.60;3.85;;;;;;;9.70;69.90;102143.09;4978550;28;20148;-65
2023/05/18 07:01:33;;;;;;;10.07;4.63;;;;;;;9.79;69.88;102148.41;4976650;28;20054;-64
2023/05/18 07:03:58;;;;;;;10.05;4.72;;;;;;;9.95;70.68;102150.38;4976284;28;20062;-66
2023/05/18 07:06:24;;;;;;;10.15;3.85;;;;;;;10.03;68.07;102086.81;4973347;28;20939;-66
2023/05/18 07:08:49;;;;;;;8.60;3.72;;;;;;;10.13;67.32;102096.44;4979742;28;20045;-66
2023/05/18 07:11:15;;;;;;;20.27;4.47;;;;;;;10.05;65.33;102056.69;4976522;28;20077;-66
2023/05/18 07:13:43;;;;;;;9.25;3.90;;;;;;;10.01;66.62;102081.63;4979174;28;20042;-66
2023/05/18 07:16:09;;;;;;;12.48;3.85;;;;;;;10.12;67.00;102097.25;4977687;28;20156;-66
2023/05/18 07:18:34;;;;;;;16.83;4.45;;;;;;;10.20;66.43;102091.38;4981636;28;20038;-65
2023/05/18 07:21:00;;;;;;;12.13;4.20;;;;;;;10.27;66.54;102092.31;4982430;28;20042;-66
2023/05/18 07:23:25;;;;;;;11.82;3.85;;;;;;;10.29;66.30;102084.59;4979338;28;20042;-65
2023/05/18 07:25:50;;;;;;;9.25;4.10;;;;;;;10.36;65.47;102071.75;4971721;28;20069;-66
2023/05/18 07:28:16;;;;;;;10.77;4.30;;;;;;;10.39;64.69;102042.50;4973980;28;20042;-66
2023/05/18 07:30:41;;;;;;;9.63;3.70;;;;;;;10.51;64.45;102050.41;4970232;28;20049;-66
2023/05/18 07:33:07;;;;;;;9.95;3.55;;;;;;;10.61;65.20;102062.63;4986143;28;20146;-65
2023/05/18 07:35:32;;;;;;;9.48;3.50;;;;;;;10.71;64.76;102064.47;4974343;28;20558;-65
2023/05/18 07:37:58;;;;;;;17.65;4.75;;;;;;;10.79;64.29;102045.59;4978481;28;21110;-67
2023/05/18 07:40:23;;;;;;;7.38;3.70;;;;;;;10.81;63.90;102055.94;4973245;28;20539;-65
2023/05/18 07:42:48;;;;;;;13.57;3.95;;;;;;;10.91;64.47;102047.47;4980868;28;20045;-66
2023/05/18 07:45:14;;;;;;;11.43;3.88;;;;;;;10.96;63.10;102030.25;4969751;28;20065;-66
2023/05/18 07:47:39;;;;;;;10.23;3.80;;;;;;;11.08;63.49;102037.25;4975966;28;20070;-66
2023/05/18 07:50:05;;;;;;;6.95;3.53;;;;;;;11.00;62.50;102015.63;4977611;28;20042;-67
2023/05/18 07:52:31;;;;;;;10.52;3.30;;;;;;;11.07;63.30;102031.22;4969442;28;20474;-65
2023/05/18 07:54:56;;;;;;;7.85;3.67;;;;;;;11.17;62.64;102039.94;4981535;28;20038;-67
2023/05/18 07:57:23;;;;;;;7.95;3.20;;;;;;;11.10;63.81;102043.34;4983144;28;20031;-67
2023/05/18 07:59:48;;;;;;;11.77;4.00;;;;;;;11.24;64.23;102055.56;4980983;28;20451;-66
2023/05/18 08:02:15;;;;;;;12.13;3.60;;;;;;;11.38;63.69;102049.63;4982411;28;20022;-65
2023/05/18 08:04:41;;;;;;;7.95;3.33;;;;;;;11.49;61.70;102016.94;4985165;28;20026;-67
2023/05/18 08:07:07;;;;;;;12.52;3.50;;;;;;;11.52;60.25;101986.78;4987429;28;20042;-67
2023/05/18 08:09:33;;;;;;;9.43;3.25;;;;;;;11.57;60.83;102002.34;4982893;28;20559;-66
2023/05/18 08:11:58;;;;;;;6.88;3.17;;;;;;;11.79;60.66;102001.63;4984130;28;20042;-66
2023/05/18 08:14:24;;;;;;;11.82;3.63;;;;;;;11.98;60.16;101980.16;4983530;28;20121;-66
2023/05/18 08:16:49;;;;;;;7.15;3.42;;;;;;;12.09;60.67;101991.44;4983613;28;20126;-66
2023/05/18 08:19:15;;;;;;;11.02;3.80;;;;;;;12.08;59.69;101970.72;4982986;28;20034;-66
2023/05/18 08:21:40;;;;;;;7.38;3.15;;;;;;;12.08;59.36;101976.75;4988581;28;20046;-66
2023/05/18 08:24:07;;;;;;;12.15;3.47;;;;;;;11.99;59.08;101962.91;4984408;28;20029;-66
2023/05/18 08:26:32;;;;;;;10.82;3.33;;;;;;;12.13;59.24;101977.66;4989837;28;20761;-65
2023/05/18 08:28:57;;;;;;;13.68;3.83;;;;;;;12.10;58.54;101961.22;4982215;28;20038;-67
2023/05/18 08:31:23;;;;;;;9.48;3.42;;;;;;;12.11;57.99;101955.19;4975731;28;20125;-66
2023/05/18 08:33:48;;;;;;;14.27;3.72;;;;;;;12.15;58.19;101951.72;4981769;28;20097;-66
2023/05/18 08:36:14;;;;;;;12.18;3.75;;;;;;;12.25;57.84;101946.59;4988369;28;20034;-66
2023/05/18 08:38:41;;;;;;;8.38;3.83;;;;;;;12.37;58.11;101943.19;4982403;28;20415;-66
2023/05/18 08:41:25;;;;;;;13.13;3.63;;;;;;;12.48;57.60;101938.88;4983097;28;20065;-67
2023/05/18 08:44:03;;;;;;;10.50;3.53;;;;;;;12.65;58.26;101955.34;5014746;28;20105;-66
2023/05/18 08:46:39;;;;;;;9.98;3.20;;;;;;;12.62;57.38;101929.41;4984989;28;20043;-63
2023/05/18 08:49:05;;;;;;;10.07;3.30;;;;;;;12.74;57.35;101938.91;4986356;28;20116;-63
2023/05/18 08:51:35;;;;;;;8.10;2.95;;;;;;;12.88;57.29;101947.63;4980800;28;20042;-63
2023/05/18 08:54:01;;;;;;;10.45;3.03;;;;;;;13.03;57.33;101941.59;4988112;28;20049;-63
2023/05/18 08:56:30;;;;;;;7.95;2.95;;;;;;;13.16;56.44;101919.94;4982408;28;20045;-63
2023/05/18 08:58:56;;;;;;;8.75;3.03;;;;;;;13.26;56.29;101926.88;4988026;28;20045;-63
2023/05/18 09:01:27;;;;;;;9.13;3.60;;;;;;;13.34;56.21;101926.00;4981365;28;22163;-63
2023/05/18 09:03:54;;;;;;;11.48;2.72;;;;;;;13.26;54.30;101888.81;4986217;28;20035;-63
2023/05/18 09:06:23;;;;;;;8.55;2.72;;;;;;;13.36;54.50;101894.81;4984066;28;20042;-63
2023/05/18 09:08:51;;;;;;;9.32;3.05;;;;;;;13.35;55.58;101914.75;4982927;28;20065;-63
2023/05/18 09:11:17;;;;;;;12.98;3.20;;;;;;;13.31;54.60;101913.00;4984660;28;20030;-63
2023/05/18 09:13:43;;;;;;;12.18;3.15;;;;;;;13.44;54.07;101903.47;4983399;28;20037;-63
2023/05/18 09:16:09;;;;;;;13.05;3.22;;;;;;;13.46;55.24;101919.91;4983163;28;20107;-63
2023/05/18 09:18:34;;;;;;;6.93;2.53;;;;;;;13.66;55.39;101925.06;4983400;28;20045;-64
2023/05/18 09:21:00;;;;;;;10.77;3.05;;;;;;;13.88;55.15;101916.34;4984513;28;20121;-63
2023/05/18 09:23:25;;;;;;;9.77;2.60;;;;;;;13.95;53.54;101886.88;4984414;28;20080;-64
2023/05/18 09:25:51;;;;;;;7.03;2.80;;;;;;;14.00;52.38;101864.31;4982593;28;20045;-63
2023/05/18 09:28:31;;;;;;;11.93;2.88;;;;;;;13.99;53.10;101892.03;4985794;28;20088;-63
2023/05/18 09:30:57;;;;;;;6.82;2.95;;;;;;;14.06;52.70;101880.75;4995957;28;20047;-63
2023/05/18 09:33:22;;;;;;;9.25;2.78;;;;;;;14.30;53.56;101902.28;4977177;28;20642;-63
2023/05/18 09:35:51;;;;;;;9.65;2.85;;;;;;;14.43;52.39;101867.53;4987997;28;20129;-63
2023/05/18 09:38:20;;;;;;;9.23;2.60;;;;;;;14.44;51.63;101859.75;4982255;28;20034;-63
2023/05/18 09:40:48;;;;;;;7.07;2.92;;;;;;;14.55;51.53;101855.31;4980551;28;20014;-63
2023/05/18 09:43:15;;;;;;;6.80;2.90;;;;;;;14.54;51.24;101858.78;4989179;28;20045;-64
2023/05/18 09:45:46;;;;;;;10.10;2.88;;;;;;;14.62;51.19;101854.41;4978912;28;20081;-63
2023/05/18 09:48:13;;;;;;;7.80;2.55;;;;;;;14.74;50.77;101848.25;4979543;28;20073;-64
2023/05/18 09:50:38;;;;;;;7.10;2.50;;;;;;;14.81;47.68;101800.44;4979821;28;20039;-63
2023/05/18 09:53:08;;;;;;;11.05;3.95;;;;;;;14.99;48.20;101810.69;4979158;28;20033;-63
2023/05/18 09:55:43;;;;;;;11.63;2.65;;;;;;;15.19;48.89;101829.59;4977552;28;20043;-63
2023/05/18 09:58:09;;;;;;;10.35;2.30;;;;;;;15.35;48.00;101813.78;4981214;28;20519;-63
2023/05/18 10:00:39;;;;;;;7.88;2.38;;;;;;;15.40;47.79;101812.00;4981972;28;20053;-63
2023/05/18 10:03:16;;;;;;;8.48;2.65;;;;;;;15.63;48.36;101818.69;4978672;28;20502;-63
2023/05/18 10:05:41;;;;;;;4.88;2.08;;;;;;;16.04;49.63;101843.34;4977867;28;20104;-63
2023/05/18 10:08:06;;;;;;;4.57;2.30;;;;;;;16.18;46.00;101771.84;4984756;28;20479;-63
2023/05/18 10:10:37;;;;;;;7.65;2.55;;;;;;;16.41;45.54;101776.72;4986000;28;20033;-63
2023/05/18 10:13:03;;;;;;;7.20;2.90;;;;;;;16.55;44.71;101758.22;4987233;28;20042;-63
2023/05/18 10:15:29;;;;;;;6.95;2.05;;;;;;;16.78;44.97;101771.75;4983198;28;20042;-63
2023/05/18 10:17:56;;;;;;;10.32;2.92;;;;;;;16.46;44.41;101761.84;4979832;28;20046;-63
2023/05/18 10:20:23;;;;;;;7.55;2.25;;;;;;;16.52;43.06;101747.81;4985300;28;20022;-64
2023/05/18 10:22:49;;;;;;;10.40;2.67;;;;;;;16.52;42.56;101748.69;4982428;28;20038;-63
2023/05/18 10:25:19;;;;;;;9.75;2.30;;;;;;;16.67;44.49;101771.06;4984365;28;20077;-63
2023/05/18 10:27:47;;;;;;;10.05;2.20;;;;;;;16.86;43.58;101759.41;4982890;28;20064;-63
2023/05/18 10:30:13;;;;;;;10.10;2.70;;;;;;;16.32;43.06;101753.38;4974776;28;20543;-63
2023/05/18 10:32:41;;;;;;;13.20;3.05;;;;;;;16.10;43.41;101760.69;4975395;28;20038;-63
2023/05/18 10:35:07;;;;;;;8.48;2.20;;;;;;;16.00;44.34;101774.72;4987048;28;20029;-63
2023/05/18 10:37:36;;;;;;;10.57;3.40;;;;;;;15.87;44.99;101790.59;4976666;28;20034;-63
2023/05/18 10:40:02;;;;;;;7.78;2.47;;;;;;;16.03;44.07;101777.28;4980500;28;20558;-63
2023/05/18 10:42:30;;;;;;;8.35;2.58;;;;;;;16.12;44.98;101790.19;4981401;28;20030;-63
2023/05/18 10:45:00;;;;;;;10.27;2.35;;;;;;;16.26;44.67;101784.78;4977499;28;20042;-64
2023/05/18 10:47:27;;;;;;;9.02;2.20;;;;;;;16.48;43.42;101770.50;4985630;28;20093;-64
2023/05/18 10:49:53;;;;;;;6.05;1.95;;;;;;;16.60;43.48;101759.84;4981127;28;20587;-64
2023/05/18 10:52:20;;;;;;;9.98;3.00;;;;;;;16.70;43.06;101763.19;4983711;28;20049;-64
2023/05/18 10:54:46;;;;;;;12.10;2.80;;;;;;;16.90;43.09;101755.88;4982416;28;20042;-64
2023/05/18 10:57:18;;;;;;;8.30;2.38;;;;;;;17.18;43.56;101749.25;4981242;28;20042;-64
2023/05/18 10:59:46;;;;;;;10.80;2.40;;;;;;;17.29;41.75;101733.34;4980077;28;20108;-64
2023/05/18 11:02:17;;;;;;;5.32;2.00;;;;;;;17.37;40.72;101700.06;4994052;28;20238;-64
2023/05/18 11:04:44;;;;;;;8.32;2.65;;;;;;;17.64;43.86;101775.28;4986250;28;20023;-63
2023/05/18 11:07:12;;;;;;;7.70;2.58;;;;;;;17.81;41.53;101728.69;4983925;28;20911;-62
2023/05/18 11:09:41;;;;;;;7.63;2.22;;;;;;;17.63;40.28;101709.97;4979936;28;20045;-63
2023/05/18 11:12:14;;;;;;;7.85;2.40;;;;;;;17.45;41.72;101736.50;4980603;28;20034;-63
2023/05/18 11:14:51;;;;;;;6.25;2.20;;;;;;;17.53;41.61;101729.34;4979784;28;20038;-63
2023/05/18 11:17:21;;;;;;;10.05;2.08;;;;;;;17.62;42.48;101740.47;4983744;28;20390;-63
2023/05/18 11:20:03;;;;;;;6.93;2.13;;;;;;;17.78;40.90;101705.22;4978889;28;20518;-64
2023/05/18 11:22:51;;;;;;;6.55;2.10;;;;;;;18.05;43.96;101769.16;4979986;28;20053;-63
2023/05/18 11:25:31;;;;;;;6.55;2.33;;;;;;;18.19;40.96;101704.28;4977212;28;20125;-63
2023/05/18 11:28:04;;;;;;;6.65;2.38;;;;;;;18.25;40.29;101696.28;4981947;28;20034;-64